Time;durP1;ratioP1;P1;durP2;ratioP2;P2;SDS_P1;SDS_P2;PMS_P1;PMS_P2;Temp;Humidity;BMP_temperature;BMP_pressure;BME280_temperature;BME280_humidity;BME280_pressure;Samples;Min_cycle;Max_cycle;Signal;HPM_P1;HPM_P2
2022/05/21 00:02:26;;;;;;;4.63;1.40;;;;;;;13.19;71.81;100445.00;5014197;28;20119;-72
2022/05/21 00:04:52;;;;;;;6.57;1.45;;;;;;;13.17;71.95;100445.19;5014125;28;20081;-73
2022/05/21 00:07:19;;;;;;;2.35;1.10;;;;;;;13.06;71.56;100445.63;5014224;28;20562;-73
2022/05/21 00:09:45;;;;;;;5.93;1.55;;;;;;;13.02;70.98;100447.84;5014148;28;20136;-72
2022/05/21 00:12:12;;;;;;;4.72;1.75;;;;;;;12.97;70.54;100455.66;5014281;28;20050;-72
2022/05/21 00:14:39;;;;;;;3.83;0.98;;;;;;;13.00;70.79;100460.66;5014109;28;20498;-73
2022/05/21 00:17:05;;;;;;;2.15;0.80;;;;;;;12.99;70.79;100458.16;5014109;28;20387;-72
2022/05/21 00:19:32;;;;;;;3.55;1.08;;;;;;;12.94;70.97;100463.22;5014386;28;20415;-72
2022/05/21 00:21:58;;;;;;;5.88;1.10;;;;;;;12.85;71.56;100463.31;5014157;28;20144;-73
2022/05/21 00:24:25;;;;;;;4.90;1.23;;;;;;;12.94;71.19;100463.22;5014106;28;20069;-72
2022/05/21 00:26:52;;;;;;;2.33;1.10;;;;;;;12.95;70.98;100471.16;5014180;28;20141;-72
2022/05/21 00:29:20;;;;;;;6.35;1.05;;;;;;;12.94;70.49;100484.78;5014640;28;20042;-73
2022/05/21 00:31:48;;;;;;;6.95;1.48;;;;;;;12.94;70.10;100480.25;5014641;28;20073;-73
2022/05/21 00:34:15;;;;;;;3.22;1.27;;;;;;;12.95;69.34;100492.69;5015763;28;20145;-72
2022/05/21 00:36:41;;;;;;;16.02;1.38;;;;;;;12.93;69.32;100494.72;5017811;28;20140;-73
2022/05/21 00:39:08;;;;;;;3.00;1.20;;;;;;;12.84;68.24;100491.25;5018207;28;20054;-73
2022/05/21 00:41:35;;;;;;;3.80;1.52;;;;;;;12.82;68.00;100497.84;5017994;28;20469;-73
2022/05/21 00:44:02;;;;;;;1.63;1.05;;;;;;;12.77;68.26;100484.94;5017671;28;20129;-73
2022/05/21 00:46:38;;;;;;;2.80;1.10;;;;;;;12.77;68.20;100506.47;4999897;28;20129;-73
2022/05/21 00:49:39;;;;;;;17.00;1.30;;;;;;;12.68;67.97;100518.25;5017696;28;20050;-72
2022/05/21 00:52:14;;;;;;;7.55;1.52;;;;;;;12.64;67.85;100531.25;4975425;28;20108;-72
2022/05/21 00:54:47;;;;;;;10.93;1.50;;;;;;;12.57;67.54;100526.75;5017711;28;20056;-72
2022/05/21 00:57:28;;;;;;;3.95;1.20;;;;;;;12.61;67.92;100536.97;5000869;28;20081;-72
2022/05/21 01:00:09;;;;;;;3.00;1.13;;;;;;;12.52;68.57;100540.75;5017206;28;20213;-72
2022/05/21 01:02:40;;;;;;;2.63;1.33;;;;;;;12.56;68.09;100557.38;5018437;28;20089;-72
2022/05/21 01:12:10;;;;;;;4.20;1.63;;;;;;;12.61;67.71;100580.03;5017259;28;20080;-72
2022/05/21 01:14:37;;;;;;;1.05;1.05;;;;;;;12.54;67.75;100575.53;5017997;28;20202;-72
2022/05/21 01:17:04;;;;;;;5.55;1.40;;;;;;;12.61;67.38;100596.19;5017346;28;20092;-72
2022/05/21 01:19:30;;;;;;;3.53;1.20;;;;;;;12.60;66.84;100591.00;5017828;28;20490;-72
2022/05/21 01:21:58;;;;;;;2.55;1.10;;;;;;;12.67;66.73;100616.19;5017335;28;20140;-72
2022/05/21 01:24:25;;;;;;;3.35;1.25;;;;;;;12.56;66.05;100605.81;5017239;28;20053;-72
2022/05/21 01:26:51;;;;;;;3.75;1.38;;;;;;;12.52;65.78;100618.78;5017239;28;20137;-72
2022/05/21 01:29:22;;;;;;;3.92;1.20;;;;;;;12.47;65.42;100621.16;5017656;28;20050;-72
2022/05/21 01:31:51;;;;;;;4.75;1.35;;;;;;;12.46;65.41;100626.72;5017968;28;20050;-72
2022/05/21 01:34:18;;;;;;;5.10;1.20;;;;;;;12.43;65.17;100616.31;5017219;28;20085;-71
2022/05/21 01:36:46;;;;;;;6.00;1.02;;;;;;;12.41;65.18;100625.38;5017190;28;20088;-72
2022/05/21 01:39:13;;;;;;;2.05;1.20;;;;;;;12.40;65.57;100631.78;5017289;28;20049;-72
2022/05/21 01:41:44;;;;;;;3.42;1.20;;;;;;;12.39;65.45;100635.50;5017583;28;20076;-71
2022/05/21 01:46:56;;;;;;;8.98;1.48;;;;;;;12.44;65.97;100634.94;5016741;28;20145;-72
2022/05/21 01:49:22;;;;;;;3.63;1.10;;;;;;;12.35;66.24;100631.47;5016703;28;20114;-73
2022/05/21 01:51:49;;;;;;;2.30;1.30;;;;;;;12.31;66.73;100634.66;5017213;28;20558;-72
2022/05/21 01:54:15;;;;;;;1.35;1.15;;;;;;;12.32;66.98;100630.97;5016346;28;20050;-72
2022/05/21 01:56:42;;;;;;;10.80;1.17;;;;;;;12.31;66.88;100630.13;5017317;28;20046;-72
2022/05/21 01:59:09;;;;;;;3.08;1.40;;;;;;;12.24;67.14;100639.91;5016275;28;20056;-76
2022/05/21 02:01:35;;;;;;;4.80;1.50;;;;;;;12.15;66.83;100651.72;5016312;28;20050;-72
2022/05/21 02:04:02;;;;;;;1.75;0.90;;;;;;;12.20;66.32;100646.63;5016460;28;20132;-72
2022/05/21 02:06:28;;;;;;;7.70;1.45;;;;;;;12.23;66.91;100648.16;5016242;28;20383;-72
2022/05/21 02:08:54;;;;;;;2.90;1.50;;;;;;;12.15;68.62;100655.22;5016913;28;20080;-72
2022/05/21 02:11:21;;;;;;;2.65;1.50;;;;;;;12.18;70.13;100659.44;5016662;28;20062;-72
2022/05/21 02:13:47;;;;;;;9.40;1.80;;;;;;;12.07;70.88;100659.78;5017018;28;20086;-72
2022/05/21 02:16:14;;;;;;;4.00;2.20;;;;;;;12.07;71.22;100665.16;5016516;28;20053;-72
2022/05/21 02:18:40;;;;;;;3.00;2.10;;;;;;;12.04;71.22;100666.34;5016504;28;20049;-72
2022/05/21 02:21:07;;;;;;;5.63;1.83;;;;;;;12.06;71.36;100663.50;5016072;28;20085;-72
2022/05/21 02:23:34;;;;;;;4.93;1.92;;;;;;;11.91;71.21;100668.72;5015925;28;20061;-72
2022/05/21 02:26:01;;;;;;;6.22;2.00;;;;;;;11.92;71.07;100682.00;5015937;28;20132;-72
2022/05/21 02:28:28;;;;;;;4.03;1.83;;;;;;;11.80;70.77;100669.09;5016018;28;20456;-72
2022/05/21 02:30:55;;;;;;;3.75;1.70;;;;;;;11.93;70.50;100685.50;5016233;28;20108;-72
2022/05/21 02:33:22;;;;;;;3.40;1.80;;;;;;;11.92;70.53;100689.22;5015995;28;20398;-71
2022/05/21 02:35:48;;;;;;;1.50;1.40;;;;;;;11.80;69.41;100686.03;5016078;28;20110;-72
2022/05/21 02:40:59;;;;;;;3.90;1.33;;;;;;;11.68;68.37;100707.03;5016512;28;20522;-72
2022/05/21 02:43:28;;;;;;;2.95;1.38;;;;;;;11.66;67.83;100706.38;5015943;28;20144;-72
2022/05/21 02:45:55;;;;;;;4.57;1.42;;;;;;;11.66;67.20;100708.22;5015696;28;20145;-71
2022/05/21 02:48:25;;;;;;;3.63;1.42;;;;;;;11.62;66.63;100715.75;5015793;28;20085;-71
2022/05/21 02:50:51;;;;;;;1.75;1.17;;;;;;;11.62;66.41;100710.38;5015603;28;20136;-71
2022/05/21 02:53:18;;;;;;;4.22;1.15;;;;;;;11.59;66.25;100726.00;5016356;28;20451;-72
2022/05/21 02:55:46;;;;;;;2.78;1.33;;;;;;;11.62;66.64;100720.25;5015607;28;20056;-71
2022/05/21 02:58:13;;;;;;;3.45;1.48;;;;;;;11.42;65.86;100734.03;5014758;28;20108;-71
2022/05/21 03:00:42;;;;;;;14.93;2.30;;;;;;;12.43;69.99;100730.16;5015563;28;20137;-71
2022/05/21 03:03:08;;;;;;;2.85;1.05;;;;;;;13.96;61.32;100727.81;5015596;28;20136;-70
2022/05/21 03:05:35;;;;;;;4.00;0.90;;;;;;;14.08;60.05;100737.16;5015238;28;20052;-71
2022/05/21 03:10:20;;;;;;;3.15;0.90;;;;;;;14.19;58.94;100733.16;5015376;28;20152;-71
2022/05/21 03:10:52;;;;;;;4.15;1.10;;;;;;;14.30;57.43;100738.94;5015361;28;20120;-70
2022/05/21 03:13:18;;;;;;;1.60;1.02;;;;;;;14.08;57.04;100755.16;5015415;28;20132;-72
2022/05/21 03:15:45;;;;;;;5.15;1.77;;;;;;;14.03;57.40;100750.34;5014989;28;20459;-73
2022/05/21 03:18:17;;;;;;;2.35;1.00;;;;;;;14.04;57.15;100763.63;5014960;28;20446;-72
2022/05/21 03:20:43;;;;;;;3.05;1.00;;;;;;;13.79;57.57;100765.69;5015360;28;20060;-72
2022/05/21 03:23:10;;;;;;;5.25;1.40;;;;;;;13.87;57.24;100774.75;5015179;28;20124;-72
2022/05/21 03:25:38;;;;;;;5.85;1.73;;;;;;;13.83;56.16;100788.56;5015017;28;20480;-71
2022/05/21 03:28:06;;;;;;;2.20;1.00;;;;;;;14.10;55.90;100790.91;5014679;28;20205;-71
2022/05/21 03:30:33;;;;;;;2.78;1.23;;;;;;;14.40;54.29;100784.56;5015001;28;20542;-70
2022/05/21 03:33:00;;;;;;;2.03;1.00;;;;;;;14.33;54.25;100772.00;5015257;28;20556;-70
2022/05/21 03:35:26;;;;;;;3.55;1.40;;;;;;;14.06;54.56;100772.38;5015187;28;20133;-72
2022/05/21 03:37:53;;;;;;;1.15;0.70;;;;;;;14.05;54.59;100784.22;5016524;28;20180;-72
2022/05/21 03:40:23;;;;;;;7.35;1.08;;;;;;;13.78;55.27;100801.78;5016469;28;20056;-72
2022/05/21 03:42:49;;;;;;;6.63;1.13;;;;;;;13.51;56.13;100805.78;5016129;28;20132;-71
2022/05/21 03:45:16;;;;;;;4.03;0.90;;;;;;;13.72;55.71;100810.53;5015497;28;20060;-70
2022/05/21 03:47:43;;;;;;;6.47;0.90;;;;;;;13.70;54.91;100823.38;5016221;28;20133;-72
2022/05/21 03:50:13;;;;;;;3.15;1.10;;;;;;;13.63;55.15;100816.16;5016153;28;20077;-72
2022/05/21 03:52:40;;;;;;;3.67;1.00;;;;;;;13.53;56.10;100827.19;5015710;28;20387;-71
2022/05/21 03:55:07;;;;;;;2.63;1.00;;;;;;;13.68;55.61;100828.09;5016854;28;20054;-71
2022/05/21 03:57:34;;;;;;;4.03;0.95;;;;;;;13.83;54.56;100822.78;4998448;28;20140;-71
2022/05/21 04:00:05;;;;;;;7.07;1.25;;;;;;;13.32;55.73;100828.63;5016205;28;20517;-69
2022/05/21 04:02:32;;;;;;;6.22;1.30;;;;;;;13.03;56.32;100839.19;5015559;28;20477;-68
2022/05/21 04:04:59;;;;;;;3.78;1.00;;;;;;;12.91;57.38;100851.34;5014788;28;20057;-70
2022/05/21 04:07:26;;;;;;;3.78;0.95;;;;;;;12.80;57.69;100850.69;5015419;28;20132;-69
2022/05/21 04:09:52;;;;;;;3.22;1.52;;;;;;;12.90;57.67;100865.81;5015078;28;20127;-68
2022/05/21 04:12:19;;;;;;;2.90;1.00;;;;;;;13.09;57.04;100865.44;5014896;28;20085;-68
2022/05/21 04:14:46;;;;;;;5.78;1.20;;;;;;;13.05;57.35;100869.47;5015570;28;20144;-69
2022/05/21 04:17:13;;;;;;;1.67;1.00;;;;;;;13.06;57.63;100881.94;5015405;28;20208;-68
2022/05/21 04:19:41;;;;;;;4.13;1.20;;;;;;;12.93;57.04;100876.25;5015360;28;20486;-68
2022/05/21 04:22:08;;;;;;;4.45;0.88;;;;;;;13.07;56.86;100884.44;5015759;28;20072;-68
2022/05/21 04:24:35;;;;;;;1.38;0.77;;;;;;;13.20;56.80;100889.28;5015789;28;20124;-69
2022/05/21 04:27:02;;;;;;;2.55;1.05;;;;;;;12.98;56.11;100895.44;5015157;28;20146;-68
2022/05/21 04:29:28;;;;;;;3.97;1.25;;;;;;;12.81;56.00;100900.00;5015667;28;20057;-68
2022/05/21 04:31:55;;;;;;;4.80;1.13;;;;;;;12.87;56.41;100905.53;5015107;28;20049;-68
2022/05/21 04:34:21;;;;;;;1.30;0.90;;;;;;;13.06;55.83;100916.94;5015411;28;20069;-68
2022/05/21 04:36:48;;;;;;;4.70;1.15;;;;;;;12.99;55.93;100919.47;5015322;28;20046;-69
2022/05/21 04:39:15;;;;;;;2.92;0.98;;;;;;;13.07;55.96;100921.31;5015886;28;20112;-68
2022/05/21 04:41:41;;;;;;;6.10;3.00;;;;;;;13.11;56.47;100931.59;5014729;28;20482;-69
2022/05/21 04:44:07;;;;;;;3.53;1.38;;;;;;;12.81;56.44;100933.16;4997910;28;20113;-68
2022/05/21 04:46:35;;;;;;;4.03;1.30;;;;;;;12.62;56.10;100928.91;4998015;28;20137;-68
2022/05/21 04:49:02;;;;;;;3.63;1.10;;;;;;;12.79;56.75;100942.38;5015015;28;20115;-69
2022/05/21 04:51:32;;;;;;;3.00;1.00;;;;;;;12.81;56.60;100943.06;5015892;28;20054;-68
2022/05/21 04:53:58;;;;;;;2.58;0.95;;;;;;;12.83;56.58;100947.28;5015239;28;20042;-68
2022/05/21 04:56:25;;;;;;;4.38;1.17;;;;;;;12.67;56.09;100955.34;5015628;28;20129;-68
2022/05/21 04:59:04;;;;;;;3.33;1.33;;;;;;;12.74;56.16;100959.06;5015623;28;20054;-69
2022/05/21 05:01:31;;;;;;;5.60;1.20;;;;;;;12.79;55.65;100972.84;5015387;28;20050;-67
2022/05/21 05:03:57;;;;;;;3.40;1.25;;;;;;;12.78;55.59;100965.78;5016578;28;20056;-68
2022/05/21 05:06:24;;;;;;;4.50;1.05;;;;;;;12.72;55.08;100974.50;5015230;28;20050;-69
2022/05/21 05:08:50;;;;;;;3.33;0.90;;;;;;;12.74;55.73;100967.13;5015747;28;20458;-69
2022/05/21 05:11:17;;;;;;;4.13;1.40;;;;;;;12.64;55.70;100974.50;5014996;28;20145;-68
2022/05/21 05:13:43;;;;;;;4.35;1.10;;;;;;;12.62;55.53;100979.19;5015003;28;20125;-69
2022/05/21 05:16:10;;;;;;;3.05;1.20;;;;;;;12.63;55.36;100987.13;5015702;28;20455;-68
2022/05/21 05:18:36;;;;;;;4.60;1.30;;;;;;;12.62;55.23;100985.41;5015458;28;20050;-69
2022/05/21 05:21:03;;;;;;;3.83;1.33;;;;;;;12.66;54.05;100988.66;5016159;28;20141;-69
2022/05/21 05:23:29;;;;;;;4.82;1.20;;;;;;;12.80;54.46;100985.31;5018899;28;20462;-69
2022/05/21 05:25:59;;;;;;;5.93;1.38;;;;;;;12.61;54.15;100997.19;5018584;28;20529;-69
2022/05/21 05:28:27;;;;;;;3.47;1.25;;;;;;;12.65;54.63;100995.03;5018053;28;20133;-67
2022/05/21 05:30:54;;;;;;;5.93;1.52;;;;;;;12.56;54.25;100987.97;5018343;28;20464;-68
2022/05/21 05:33:21;;;;;;;4.28;1.10;;;;;;;12.80;54.15;100990.69;5019121;28;20052;-68
2022/05/21 05:35:52;;;;;;;6.22;1.17;;;;;;;12.69;53.54;100988.28;5018760;28;20136;-68
2022/05/21 05:38:19;;;;;;;;;;;;;;;12.81;53.34;100999.63;5018664;28;20504;-69
2022/05/21 05:40:49;;;;;;;5.55;1.50;;;;;;;12.74;53.66;100999.44;5019007;28;19921;-69
2022/05/21 05:43:17;;;;;;;7.43;1.45;;;;;;;12.54;53.16;100998.03;5017845;28;20144;-69
2022/05/21 05:45:44;;;;;;;5.65;1.48;;;;;;;12.64;53.41;101007.63;5017115;28;20045;-69
2022/05/21 05:48:10;;;;;;;6.97;1.50;;;;;;;12.51;53.06;100996.53;5017538;28;20046;-68
2022/05/21 05:50:37;;;;;;;7.35;1.55;;;;;;;12.58;52.98;100994.00;5016980;28;20471;-68
2022/05/21 05:53:05;;;;;;;4.82;1.63;;;;;;;12.63;53.02;100997.91;5016717;28;20054;-68
2022/05/21 05:55:33;;;;;;;7.20;1.48;;;;;;;12.66;52.52;101002.09;5016254;28;20148;-68
2022/05/21 05:58:00;;;;;;;6.40;1.48;;;;;;;12.44;52.79;101000.88;5016429;28;20137;-68
2022/05/21 06:00:26;;;;;;;7.80;1.50;;;;;;;12.32;52.85;100999.53;5016005;28;20144;-68
2022/05/21 06:02:59;;;;;;;2.42;1.10;;;;;;;12.15;53.98;100998.66;5016326;28;20405;-68
2022/05/21 06:05:29;;;;;;;6.57;1.75;;;;;;;12.26;54.07;100997.50;5016754;28;20053;-68
2022/05/21 06:08:02;;;;;;;7.03;1.60;;;;;;;12.31;53.11;101009.41;5016466;28;20141;-68
2022/05/21 06:10:37;;;;;;;10.30;1.70;;;;;;;12.41;52.74;100996.66;5016208;28;20140;-68
2022/05/21 06:13:05;;;;;;;9.63;1.55;;;;;;;12.51;53.46;101003.75;5016245;28;20060;-68
2022/05/21 06:15:33;;;;;;;5.60;1.83;;;;;;;12.54;53.28;101001.56;5016316;28;20583;-68
2022/05/21 06:18:05;;;;;;;10.10;1.92;;;;;;;12.55;52.70;101005.94;5015884;28;20073;-68
2022/05/21 06:20:31;;;;;;;6.57;1.77;;;;;;;12.62;52.67;101019.56;5015931;28;20053;-68
2022/05/21 06:22:58;;;;;;;7.22;1.75;;;;;;;12.69;52.90;101020.59;5016357;28;20054;-68
2022/05/21 06:25:25;;;;;;;4.97;1.48;;;;;;;12.54;53.48;101028.47;5016195;28;20074;-68
2022/05/21 06:27:53;;;;;;;5.68;1.83;;;;;;;12.65;53.29;101030.00;5015500;28;20054;-68
2022/05/21 06:30:21;;;;;;;7.90;2.10;;;;;;;12.85;52.90;101030.56;5015671;28;20145;-68
2022/05/21 06:32:48;;;;;;;7.97;2.22;;;;;;;12.83;52.76;101033.44;5015632;28;20136;-68
2022/05/21 06:35:17;;;;;;;9.07;2.03;;;;;;;12.67;53.30;101032.56;5015953;28;20149;-68
2022/05/21 06:37:44;;;;;;;5.05;1.63;;;;;;;12.65;53.51;101043.47;5016253;28;20454;-68
2022/05/21 06:40:13;;;;;;;3.92;1.50;;;;;;;12.56;53.49;101028.34;5016083;28;20056;-68
2022/05/21 06:42:40;;;;;;;10.65;1.60;;;;;;;12.46;53.60;101035.72;5016112;28;20515;-68
2022/05/21 06:45:07;;;;;;;8.15;1.52;;;;;;;12.57;53.19;101038.09;5015944;28;20514;-68
2022/05/21 06:47:34;;;;;;;8.77;1.65;;;;;;;12.34;52.83;101038.69;5015329;28;20081;-68
2022/05/21 06:50:00;;;;;;;6.00;1.30;;;;;;;12.52;52.84;101045.78;5015107;28;20122;-69
2022/05/21 06:52:30;;;;;;;5.60;1.80;;;;;;;12.68;52.87;101039.63;5015520;28;20129;-68
2022/05/21 06:54:57;;;;;;;6.15;1.65;;;;;;;12.60;52.63;101038.59;4997974;28;20054;-68
2022/05/21 06:57:28;;;;;;;4.20;1.52;;;;;;;12.83;52.26;101037.97;5014983;28;20136;-68
2022/05/21 06:59:55;;;;;;;6.10;1.65;;;;;;;12.98;52.12;101041.69;5015276;28;20054;-68
2022/05/21 07:02:24;;;;;;;5.57;1.80;;;;;;;13.01;52.44;101033.28;4997709;28;20054;-68
2022/05/21 07:07:45;;;;;;;6.63;1.55;;;;;;;13.08;50.79;101033.44;5014874;28;20171;-69
2022/05/21 07:10:20;;;;;;;6.35;1.40;;;;;;;13.15;50.85;101034.44;5015236;28;20140;-68
2022/05/21 07:12:47;;;;;;;7.20;1.55;;;;;;;13.25;49.82;101040.50;5015129;28;20496;-68
2022/05/21 07:15:15;;;;;;;4.70;1.05;;;;;;;13.54;49.25;101063.38;5015043;28;20141;-69
2022/05/21 07:17:43;;;;;;;4.05;1.40;;;;;;;13.59;49.39;101040.28;5015367;28;20168;-68
2022/05/21 07:20:15;;;;;;;4.63;1.67;;;;;;;13.86;48.74;101054.38;5015995;28;20054;-68
2022/05/21 07:22:43;;;;;;;3.67;1.33;;;;;;;13.74;48.40;101053.88;5015384;28;20533;-67
2022/05/21 07:25:13;;;;;;;3.47;1.27;;;;;;;13.44;49.32;101062.69;5015232;28;20050;-67
2022/05/21 07:27:40;;;;;;;4.43;1.05;;;;;;;13.18;50.56;101062.88;5014972;28;20469;-68
2022/05/21 07:30:08;;;;;;;7.60;1.40;;;;;;;13.10;50.73;101055.66;5014928;28;20136;-67
2022/05/21 07:32:35;;;;;;;4.28;1.17;;;;;;;13.34;50.31;101052.09;5015050;28;20049;-69
2022/05/21 07:35:06;;;;;;;2.85;1.08;;;;;;;13.49;50.10;101047.72;5015599;28;20054;-69
2022/05/21 07:37:33;;;;;;;6.57;2.20;;;;;;;13.86;49.66;101040.88;5014976;28;20088;-68
2022/05/21 07:40:02;;;;;;;6.32;1.60;;;;;;;14.30;47.60;101033.09;5015194;28;20049;-70
2022/05/21 07:42:28;;;;;;;6.07;1.10;;;;;;;14.62;47.16;101039.31;5015494;28;20054;-71
2022/05/21 07:44:57;;;;;;;4.95;1.52;;;;;;;15.19;46.46;101028.09;5014730;28;20137;-71
2022/05/21 07:47:24;;;;;;;7.65;1.35;;;;;;;15.34;45.63;101029.97;5015082;28;20140;-71
2022/05/21 07:49:52;;;;;;;4.40;1.48;;;;;;;15.28;45.96;101036.13;5015074;28;20461;-71
2022/05/21 07:52:19;;;;;;;6.80;1.52;;;;;;;15.51;45.23;101034.19;5014619;28;20054;-71
2022/05/21 07:54:45;;;;;;;9.57;1.50;;;;;;;15.36;45.71;101023.38;5015617;28;20072;-71
2022/05/21 07:57:12;;;;;;;4.53;1.60;;;;;;;15.95;44.43;101030.66;5015529;28;20045;-71
2022/05/21 07:59:38;;;;;;;4.43;1.52;;;;;;;16.34;43.50;101015.97;5015477;28;20088;-71
2022/05/21 08:02:06;;;;;;;5.22;1.45;;;;;;;16.72;42.76;101021.19;5014825;28;20468;-71
2022/05/21 08:04:35;;;;;;;5.35;1.65;;;;;;;16.73;42.84;101020.16;5015193;28;20537;-71
2022/05/21 08:07:01;;;;;;;4.25;1.60;;;;;;;17.00;42.29;101027.47;5015943;28;20128;-71
2022/05/21 08:09:28;;;;;;;6.93;1.45;;;;;;;17.20;41.25;101014.09;5015578;28;20485;-71
2022/05/21 08:11:54;;;;;;;8.70;1.92;;;;;;;17.03;41.85;101005.41;5015065;28;20076;-71
2022/05/21 08:14:21;;;;;;;5.72;1.90;;;;;;;16.86;42.49;101001.31;5015954;28;20138;-70
2022/05/21 08:16:49;;;;;;;5.47;1.50;;;;;;;17.02;42.67;101003.72;5015148;28;20073;-72
2022/05/21 08:19:16;;;;;;;5.60;1.40;;;;;;;16.72;43.16;101003.06;5014965;28;20057;-71
2022/05/21 08:21:43;;;;;;;5.70;1.77;;;;;;;16.92;42.74;101008.66;5014796;28;20092;-72
2022/05/21 08:26:57;;;;;;;6.35;1.70;;;;;;;16.35;43.73;101009.50;5014874;28;20476;-71
2022/05/21 08:29:29;;;;;;;5.07;1.63;;;;;;;16.25;43.81;101008.97;5014983;28;20085;-71
2022/05/21 08:31:56;;;;;;;8.73;1.65;;;;;;;16.94;43.24;101005.75;5014997;28;20054;-71
2022/05/21 08:34:25;;;;;;;6.45;1.83;;;;;;;17.01;42.57;101003.94;5015467;28;20054;-71
2022/05/21 08:36:52;;;;;;;5.13;1.38;;;;;;;17.30;41.79;101002.88;5015168;28;20488;-71
2022/05/21 08:39:18;;;;;;;7.20;1.20;;;;;;;18.04;40.75;101000.41;5015193;28;20137;-71
2022/05/21 08:41:57;;;;;;;3.63;1.50;;;;;;;18.44;39.27;101007.88;5015397;28;20429;-72
2022/05/21 08:44:43;;;;;;;7.97;1.50;;;;;;;17.94;40.13;100993.69;5014559;28;20513;-71
2022/05/21 08:47:35;;;;;;;3.92;1.60;;;;;;;16.78;42.10;100998.72;5014257;28;20128;-71
2022/05/21 08:50:05;;;;;;;7.47;1.83;;;;;;;15.69;44.68;101006.81;5014971;28;20100;-70
2022/05/21 08:52:42;;;;;;;5.10;1.60;;;;;;;15.34;46.24;101016.47;5014464;28;20074;-71
2022/05/21 08:55:15;;;;;;;7.28;1.90;;;;;;;14.93;47.54;101022.25;5014656;28;20053;-71
2022/05/21 08:57:46;;;;;;;4.60;1.95;;;;;;;14.45;47.97;101024.25;5019030;28;20128;-71
2022/05/21 09:00:23;;;;;;;6.78;2.03;;;;;;;14.10;49.37;101031.00;5018630;28;20045;-72
2022/05/21 09:02:52;;;;;;;10.98;1.85;;;;;;;13.98;52.18;101022.47;5018985;28;20060;-69
2022/05/21 09:05:20;;;;;;;7.63;1.92;;;;;;;13.57;54.87;101030.69;5018312;28;20109;-69
2022/05/21 09:08:07;;;;;;;6.22;2.00;;;;;;;13.54;56.04;101053.41;5017903;28;20073;-69
2022/05/21 09:10:51;;;;;;;10.20;2.20;;;;;;;13.76;55.76;101046.47;5018520;28;20461;-72
2022/05/21 09:13:41;;;;;;;4.25;1.90;;;;;;;13.81;55.37;101046.81;5021958;28;20054;-73
2022/05/21 09:18:56;;;;;;;5.05;1.80;;;;;;;13.71;55.89;101046.13;5025441;28;20129;-72
2022/05/21 09:21:26;;;;;;;5.95;2.15;;;;;;;13.66;56.69;101042.25;5024615;28;20077;-74
2022/05/21 09:23:53;;;;;;;8.70;2.47;;;;;;;13.52;56.19;101052.72;5024331;28;20073;-74
2022/05/21 09:26:26;;;;;;;9.30;2.55;;;;;;;13.43;57.11;101048.38;5023646;28;20057;-74
2022/05/21 09:29:11;;;;;;;3.47;2.00;;;;;;;13.07;57.84;101047.91;5023739;28;20100;-73
2022/05/21 09:31:38;;;;;;;8.07;2.83;;;;;;;13.13;56.92;101047.22;5021274;28;20393;-73
2022/05/21 09:34:32;;;;;;;6.30;2.42;;;;;;;13.23;57.43;101042.50;5017316;28;20060;-73
2022/05/21 09:37:00;;;;;;;7.10;2.20;;;;;;;13.22;58.15;101046.22;5014451;28;20050;-73
2022/05/21 09:39:40;;;;;;;10.60;2.55;;;;;;;13.17;58.45;101051.25;5018285;28;20414;-74
2022/05/21 09:45:22;;;;;;;10.38;3.03;;;;;;;13.23;57.70;101052.47;5018220;28;20050;-74
2022/05/21 09:45:27;;;;;;;5.05;2.30;;;;;;;12.96;59.11;101038.31;5018202;28;20053;-74
2022/05/21 09:48:15;;;;;;;6.32;3.30;;;;;;;13.40;57.36;101040.66;5019579;28;20085;-74
2022/05/21 09:50:46;;;;;;;8.73;3.70;;;;;;;13.27;57.51;101035.78;5020128;28;20452;-73
2022/05/21 09:53:20;;;;;;;7.43;3.60;;;;;;;13.36;57.25;101042.00;5019912;28;20050;-73
2022/05/21 09:56:01;;;;;;;11.25;3.85;;;;;;;13.30;57.10;101045.38;5021006;28;20128;-73
2022/05/21 09:58:30;;;;;;;8.35;3.85;;;;;;;13.02;57.19;101040.34;5018600;28;20073;-73
2022/05/21 10:00:57;;;;;;;11.02;4.50;;;;;;;13.19;56.41;101045.72;5017603;28;20125;-74
2022/05/21 10:03:49;;;;;;;8.85;4.65;;;;;;;13.37;55.55;101053.63;5001258;28;20157;-74
2022/05/21 10:06:22;;;;;;;10.35;5.32;;;;;;;13.34;54.58;101036.78;5018707;28;20077;-74
2022/05/21 10:12:04;;;;;;;10.35;5.18;;;;;;;13.40;54.25;101039.81;5019909;28;20092;-74
2022/05/21 10:14:35;;;;;;;11.30;4.90;;;;;;;13.50;54.01;101040.47;5020378;28;20065;-73
2022/05/21 10:17:22;;;;;;;6.97;5.05;;;;;;;13.64;53.55;101041.63;5020483;28;20073;-74
2022/05/21 10:20:13;;;;;;;9.50;5.30;;;;;;;13.90;52.98;101042.22;5020080;28;20136;-74
2022/05/21 10:23:02;;;;;;;13.88;5.10;;;;;;;13.93;52.58;101058.06;5019058;28;20077;-74
2022/05/21 10:25:45;;;;;;;9.32;5.22;;;;;;;14.48;51.00;101043.63;5017740;28;20150;-74
2022/05/21 10:28:27;;;;;;;8.73;4.70;;;;;;;14.67;50.46;101031.53;5019114;28;20074;-74
2022/05/21 10:31:02;;;;;;;9.63;4.68;;;;;;;14.68;50.27;101027.81;5019819;28;20525;-74
2022/05/21 10:33:43;;;;;;;9.23;4.30;;;;;;;14.89;50.34;101026.34;5018386;28;20053;-74
2022/05/21 10:36:31;;;;;;;9.30;4.70;;;;;;;15.13;49.18;101028.00;5018571;28;20454;-73
2022/05/21 10:39:30;;;;;;;13.77;5.28;;;;;;;15.64;47.59;101031.72;5018155;28;20112;-73
2022/05/21 10:42:22;;;;;;;12.25;4.55;;;;;;;15.83;47.25;101019.50;5017911;28;20104;-74
2022/05/21 10:45:20;;;;;;;6.28;4.22;;;;;;;16.37;45.99;101012.88;5018803;28;20061;-73
2022/05/21 10:48:09;;;;;;;9.13;4.13;;;;;;;16.27;46.21;101005.06;5019679;28;20070;-73
2022/05/21 10:50:54;;;;;;;8.52;3.60;;;;;;;16.54;46.21;101000.81;5019965;28;20153;-73
2022/05/21 10:53:36;;;;;;;7.85;3.45;;;;;;;17.03;44.46;101002.69;5020446;28;20457;-73
2022/05/21 10:56:10;;;;;;;11.48;3.67;;;;;;;16.40;44.70;101001.63;5022034;28;20540;-73
2022/05/21 10:59:08;;;;;;;8.95;4.13;;;;;;;15.75;46.32;100994.41;5024616;28;20077;-74
2022/05/21 11:01:53;;;;;;;8.38;3.75;;;;;;;15.27;47.62;101004.72;5025272;28;20064;-73
2022/05/21 11:04:40;;;;;;;7.35;3.13;;;;;;;15.01;48.45;101005.94;5023699;28;20084;-73
2022/05/21 11:07:24;;;;;;;8.20;3.65;;;;;;;15.35;48.04;101007.31;5020892;28;20049;-73
2022/05/21 11:10:13;;;;;;;8.50;3.20;;;;;;;15.97;45.52;101006.97;5022428;28;20108;-74
2022/05/21 11:12:52;;;;;;;18.67;3.50;;;;;;;15.76;45.37;100996.09;5003397;28;20501;-73
2022/05/21 11:15:45;;;;;;;7.47;3.03;;;;;;;15.91;45.27;100997.72;5020653;28;20046;-74
2022/05/21 11:18:30;;;;;;;11.93;3.00;;;;;;;16.04;45.18;100983.53;5020501;28;20114;-73
2022/05/21 11:21:08;;;;;;;8.73;3.17;;;;;;;15.23;45.94;101002.38;5027999;28;20080;-73
2022/05/21 11:23:35;;;;;;;10.70;3.85;;;;;;;14.93;47.13;100992.53;5028345;28;20054;-73
2022/05/21 11:26:28;;;;;;;11.00;3.55;;;;;;;14.74;48.19;100986.63;5028831;28;20550;-74
2022/05/21 11:29:10;;;;;;;15.02;3.83;;;;;;;14.36;48.76;100991.06;5028749;28;20457;-74
2022/05/21 11:37:42;;;;;;;12.60;4.03;;;;;;;14.70;48.43;100984.41;5018448;28;20488;-73
2022/05/21 11:40:29;;;;;;;6.72;3.40;;;;;;;14.70;48.35;100979.88;5017435;28;20068;-73
2022/05/21 11:42:55;;;;;;;14.63;4.05;;;;;;;14.94;47.62;100980.69;5016800;28;20060;-73
2022/05/21 11:45:24;;;;;;;12.02;3.63;;;;;;;14.92;47.09;100997.09;5018335;28;20054;-73
2022/05/21 11:48:15;;;;;;;8.77;3.10;;;;;;;15.05;47.05;100993.78;5018857;28;20050;-73
2022/05/21 11:50:42;;;;;;;11.85;3.33;;;;;;;15.25;47.39;100994.91;5018221;28;20060;-74
2022/05/21 11:53:35;;;;;;;13.32;3.75;;;;;;;15.34;46.57;100982.16;5017742;28;20103;-73
2022/05/21 11:56:08;;;;;;;9.82;3.10;;;;;;;15.20;47.24;100991.94;5018317;28;20054;-73
2022/05/21 11:58:50;;;;;;;7.88;3.33;;;;;;;14.85;48.10;100989.91;5017518;28;20049;-73
2022/05/21 12:01:41;;;;;;;7.75;3.00;;;;;;;14.83;48.31;100994.63;5020568;28;20061;-74
2022/05/21 12:04:21;;;;;;;13.35;3.47;;;;;;;14.70;48.75;101000.59;5018697;28;20096;-74
2022/05/21 12:06:49;;;;;;;7.83;3.50;;;;;;;14.97;48.28;101002.78;5018399;28;20413;-74
2022/05/21 12:09:26;;;;;;;9.40;2.80;;;;;;;14.80;48.00;100989.59;5020751;28;20144;-74
2022/05/21 12:12:21;;;;;;;6.18;3.40;;;;;;;14.69;48.42;100994.38;5019376;28;20100;-73
2022/05/21 12:14:53;;;;;;;8.85;3.35;;;;;;;14.76;48.78;101006.16;5017581;28;20064;-73